This demonstration page uses our WeatherBlox Daily Observations layout. Learn more.

41.55636, -103.73856

Hourly Observations for December 18, 2015

Temp ( °F °C ) Dew Point ( °F °C ) Humidity (%) Winds ( mph kmh ) Pressure ( in mb ) Visibility ( mi km ) Precip ( " mm )
12:53 am 00:53 Clear -8 -22 -9 -23 92 92 ENE 3 6 30.48 1032 10 16.09344 0 0
1:53 am 01:53 Clear -6 -21 -9 -23 84 84 NNE 5 7 30.45 1031 10 16.09344 0 0
2:53 am 02:53 Clear -2 -19 -8 -22 77 77 Calm 30.36 1028 10 16.09344 0 0
3:53 am 03:53 Clear 3 -16 -2 -19 78 78 E 5 7 30.33 1027 10 16.09344 0 0
4:53 am 04:53 Clear 1 -17 -6 -21 71 71 NNE 8 13 30.33 1027 10 16.09344 0 0
5:53 am 05:53 Clear 1 -17 -4 -20 78 78 Calm 30.33 1027 10 16.09344 0 0
6:53 am 06:53 Clear 0 -18 -6 -21 78 78 N 5 7 30.36 1028 10 16.09344 0 0
7:53 am 07:53 Sunny 1 -17 -4 -20 78 78 N 6 9 30.33 1027 10 16.09344 0 0
8:53 am 08:53 Sunny 9 -13 3 -16 78 78 Calm 30.3 1026 10 16.09344 0 0
9:53 am 09:53 Sunny 10 -12 3 -16 72 72 SSE 8 13 30.3 1026 10 16.09344 0 0
10:53 am 10:53 Sunny 16 -9 9 -13 73 73 ESE 8 13 30.24 1024 10 16.09344 0 0
11:53 am 11:53 Sunny 19 -7 9 -13 63 63 ESE 9 15 30.18 1022 10 16.09344 0 0
12:53 pm 12:53 Sunny 23 -5 14 -10 68 68 SSE 5 7 30.15 1021 10 16.09344 0 0
1:53 pm 13:53 Mostly Sunny 21 -6 14 -10 74 74 ESE 7 11 30.18 1022 10 16.09344 0 0
2:53 pm 14:53 Sunny 23 -5 16 -9 74 74 SE 5 7 30.15 1021 10 16.09344 0 0
3:53 pm 15:53 Sunny 21 -6 14 -10 74 74 SSE 5 7 30.21 1023 10 16.09344 0 0
4:53 pm 16:53 Clear 18 -8 10 -12 73 73 Calm 30.24 1024 10 16.09344 0 0
5:53 pm 17:53 Clear 16 -9 10 -12 79 79 ESE 6 9 30.3 1026 10 16.09344 0 0
6:53 pm 18:53 Clear 18 -8 12 -11 79 79 N 3 6 30.27 1025 10 16.09344 0 0
7:53 pm 19:53 Clear 16 -9 10 -12 79 79 ENE 3 6 30.3 1026 10 16.09344 0 0
8:53 pm 20:53 Clear 18 -8 12 -11 79 79 E 8 13 30.3 1026 10 16.09344 0 0
9:53 pm 21:53 Clear 18 -8 12 -11 79 79 ESE 5 7 30.3 1026 10 16.09344 0 0
10:53 pm 22:53 Clear 16 -9 12 -11 86 86 E 8 13 30.33 1027 10 16.09344 0 0
11:53 pm 23:53 Clear 16 -9 12 -11 86 86 E 5 7 30.33 1027 10 16.09344 0 0

Powered by AerisWeather